createdAt,value
2023-06-19T00:05:12.376Z,100157
2023-06-19T00:15:13.763Z,100159
2023-06-19T00:25:15.065Z,100162
2023-06-19T00:45:17.749Z,100148
2023-06-19T00:55:19.085Z,100145
2023-06-19T01:05:20.467Z,100151
2023-06-19T01:15:21.723Z,100140
2023-06-19T01:25:22.970Z,100144
2023-06-19T01:35:24.252Z,100142
2023-06-19T01:45:25.850Z,100126
2023-06-19T01:55:26.766Z,100124
2023-06-19T02:05:27.942Z,100140
2023-06-19T02:15:29.174Z,100142
2023-06-19T02:25:30.351Z,100148
2023-06-19T02:35:31.538Z,100152
2023-06-19T02:55:34.019Z,100149
2023-06-19T03:05:35.248Z,100145
2023-06-19T03:15:36.478Z,100151
2023-06-19T03:25:37.670Z,100163
2023-06-19T03:35:38.891Z,100170
2023-06-19T03:45:40.114Z,100166
2023-06-19T03:55:41.380Z,100172
2023-06-19T04:05:42.724Z,100186
2023-06-19T04:15:44.150Z,100190
2023-06-19T04:25:45.361Z,100185
2023-06-19T04:35:46.678Z,100193
2023-06-19T04:55:49.531Z,100188
2023-06-19T05:05:51.206Z,100193
2023-06-19T05:15:52.558Z,100200
2023-06-19T05:25:54.301Z,100215
2023-06-19T05:45:58.177Z,100222
2023-06-19T05:56:00.503Z,100228
2023-06-19T06:06:03.040Z,100240
2023-06-19T06:26:08.990Z,100245
2023-06-19T06:36:15.259Z,100238
2023-06-19T06:46:15.562Z,100242
2023-06-19T06:56:18.932Z,100257
2023-06-19T07:06:22.383Z,100241
2023-06-19T07:16:25.853Z,100244
2023-06-19T07:26:29.281Z,100236
2023-06-19T07:36:32.759Z,100236
2023-06-19T07:53:10.692Z,100228
2023-06-19T08:06:41.410Z,100222
2023-06-19T08:19:15.474Z,100236
2023-06-19T08:29:18.348Z,100222
2023-06-19T08:39:21.067Z,100227
2023-06-19T08:49:23.646Z,100223
2023-06-19T08:59:26.348Z,100213
2023-06-19T09:09:29.025Z,100211
2023-06-19T09:19:31.699Z,100210
2023-06-19T09:29:34.338Z,100210
2023-06-19T09:39:36.973Z,100199
2023-06-19T09:49:39.520Z,100184
2023-06-19T09:59:41.985Z,100181
2023-06-19T10:09:44.411Z,100171
2023-06-19T10:19:46.917Z,100159
2023-06-19T10:30:05.776Z,100154
2023-06-19T10:39:51.869Z,100148
2023-06-19T10:49:54.313Z,100142
2023-06-19T10:59:56.800Z,100141
2023-06-19T11:09:59.298Z,100139
2023-06-19T11:20:01.805Z,100143
2023-06-19T11:30:04.294Z,100131
2023-06-19T11:40:06.773Z,100124
2023-06-19T11:50:09.680Z,100112
2023-06-19T12:00:11.890Z,100113
2023-06-19T12:10:14.268Z,100112
2023-06-19T12:20:16.690Z,100101
2023-06-19T12:30:19.090Z,100091
2023-06-19T12:40:21.528Z,100078
2023-06-19T12:50:23.985Z,100073
2023-06-19T13:00:26.309Z,100070
2023-06-19T13:10:28.384Z,100060
2023-06-19T13:20:30.746Z,100050
2023-06-19T13:30:34.239Z,100048
2023-06-19T13:40:35.536Z,100043
2023-06-19T13:50:38.000Z,100039
2023-06-19T14:10:42.906Z,100032
2023-06-19T14:20:45.421Z,100031
2023-06-19T14:30:47.895Z,100024
2023-06-19T14:40:50.372Z,100028
2023-06-19T14:50:52.853Z,100027
2023-06-19T15:00:55.269Z,100021
2023-06-19T15:10:57.749Z,100022
2023-06-19T15:21:00.229Z,100024
2023-06-19T15:31:02.756Z,100025
2023-06-19T15:41:05.177Z,100027
2023-06-19T15:51:07.580Z,100023
2023-06-19T16:01:10.055Z,100023
2023-06-19T16:11:12.444Z,100021
2023-06-19T16:21:14.888Z,100020
2023-06-19T16:31:17.332Z,100027
2023-06-19T16:41:20.867Z,100017
2023-06-19T16:51:21.988Z,100027
2023-06-19T17:01:24.287Z,100034
2023-06-19T17:11:26.529Z,100030
2023-06-19T17:21:28.717Z,100029
2023-06-19T17:31:31.094Z,100032
2023-06-19T17:41:33.331Z,100038
2023-06-19T17:51:35.578Z,100049
2023-06-19T18:01:37.987Z,100052
2023-06-19T18:11:40.123Z,100051
2023-06-19T18:21:42.402Z,100057
2023-06-19T18:31:44.592Z,100062
2023-06-19T18:41:46.797Z,100065
2023-06-19T18:51:48.845Z,100077
2023-06-19T19:01:52.336Z,100088
2023-06-19T19:11:53.096Z,100095
2023-06-19T19:21:55.240Z,100106
2023-06-19T19:31:57.399Z,100113
2023-06-19T19:41:59.495Z,100125
2023-06-19T19:52:01.615Z,100128
2023-06-19T20:02:03.807Z,100144
2023-06-19T20:22:07.772Z,100148
2023-06-19T20:32:09.735Z,100142
2023-06-19T20:42:11.770Z,100145
2023-06-19T20:52:13.810Z,100157
2023-06-19T21:02:15.860Z,100169
2023-06-19T21:12:17.840Z,100175
2023-06-19T21:22:19.745Z,100179
2023-06-19T21:32:21.701Z,100177
2023-06-19T21:42:23.580Z,100179
2023-06-19T22:02:27.248Z,100193
2023-06-19T22:12:28.881Z,100209
2023-06-19T22:22:30.678Z,100212
2023-06-19T22:32:32.406Z,100219
2023-06-19T22:42:34.141Z,100209
2023-06-19T22:52:35.799Z,100208
2023-06-19T23:12:39.184Z,100200
2023-06-19T23:22:40.895Z,100198
2023-06-19T23:32:42.640Z,100189
2023-06-19T23:42:44.269Z,100193
2023-06-19T23:52:45.944Z,100189
